sensor_id;sensor_type;location;lat;lon;timestamp;P1;durP1;ratioP1;P2;durP2;ratioP2
17714;SDS011;8977;50.902;4.314;2023-11-21T00:01:55;28.80;;;18.50;;
17714;SDS011;8977;50.902;4.314;2023-11-21T00:04:25;26.50;;;17.30;;
17714;SDS011;8977;50.902;4.314;2023-11-21T00:06:58;29.23;;;17.53;;
17714;SDS011;8977;50.902;4.314;2023-11-21T00:09:28;26.53;;;17.77;;
17714;SDS011;8977;50.902;4.314;2023-11-21T00:11:57;30.47;;;18.70;;
17714;SDS011;8977;50.902;4.314;2023-11-21T00:14:26;27.77;;;18.33;;
17714;SDS011;8977;50.902;4.314;2023-11-21T00:17:00;28.43;;;18.00;;
17714;SDS011;8977;50.902;4.314;2023-11-21T00:19:33;29.57;;;18.20;;
17714;SDS011;8977;50.902;4.314;2023-11-21T00:22:00;27.17;;;17.73;;
17714;SDS011;8977;50.902;4.314;2023-11-21T00:24:28;24.87;;;15.90;;
17714;SDS011;8977;50.902;4.314;2023-11-21T00:26:55;26.40;;;17.73;;
17714;SDS011;8977;50.902;4.314;2023-11-21T00:29:23;26.87;;;17.00;;
17714;SDS011;8977;50.902;4.314;2023-11-21T00:31:51;25.37;;;16.80;;
17714;SDS011;8977;50.902;4.314;2023-11-21T00:34:21;27.53;;;16.97;;
17714;SDS011;8977;50.902;4.314;2023-11-21T00:36:48;26.70;;;16.87;;
17714;SDS011;8977;50.902;4.314;2023-11-21T00:39:16;24.33;;;16.07;;
17714;SDS011;8977;50.902;4.314;2023-11-21T00:41:46;24.57;;;17.33;;
17714;SDS011;8977;50.902;4.314;2023-11-21T00:44:14;23.57;;;15.97;;
17714;SDS011;8977;50.902;4.314;2023-11-21T00:46:47;26.97;;;16.90;;
17714;SDS011;8977;50.902;4.314;2023-11-21T00:49:18;23.73;;;16.57;;
17714;SDS011;8977;50.902;4.314;2023-11-21T00:51:48;25.53;;;16.40;;
17714;SDS011;8977;50.902;4.314;2023-11-21T00:54:16;24.27;;;16.63;;
17714;SDS011;8977;50.902;4.314;2023-11-21T00:56:44;22.87;;;15.43;;
17714;SDS011;8977;50.902;4.314;2023-11-21T00:59:18;24.77;;;17.37;;
17714;SDS011;8977;50.902;4.314;2023-11-21T01:01:51;24.07;;;17.07;;
17714;SDS011;8977;50.902;4.314;2023-11-21T01:04:21;26.13;;;17.90;;
17714;SDS011;8977;50.902;4.314;2023-11-21T01:09:23;32.97;;;18.37;;
17714;SDS011;8977;50.902;4.314;2023-11-21T01:11:52;25.53;;;17.47;;
17714;SDS011;8977;50.902;4.314;2023-11-21T01:14:20;26.13;;;17.37;;
17714;SDS011;8977;50.902;4.314;2023-11-21T01:16:47;26.40;;;17.87;;
17714;SDS011;8977;50.902;4.314;2023-11-21T01:19:18;25.57;;;17.93;;
17714;SDS011;8977;50.902;4.314;2023-11-21T01:21:45;28.47;;;17.57;;
17714;SDS011;8977;50.902;4.314;2023-11-21T01:24:13;26.67;;;17.20;;
17714;SDS011;8977;50.902;4.314;2023-11-21T01:26:40;24.67;;;16.60;;
17714;SDS011;8977;50.902;4.314;2023-11-21T01:29:09;26.13;;;17.53;;
17714;SDS011;8977;50.902;4.314;2023-11-21T01:31:42;25.23;;;17.97;;
17714;SDS011;8977;50.902;4.314;2023-11-21T01:34:10;23.67;;;16.57;;
17714;SDS011;8977;50.902;4.314;2023-11-21T01:36:45;28.07;;;17.07;;
17714;SDS011;8977;50.902;4.314;2023-11-21T01:39:15;24.57;;;16.13;;
17714;SDS011;8977;50.902;4.314;2023-11-21T01:41:48;26.50;;;16.93;;
17714;SDS011;8977;50.902;4.314;2023-11-21T01:44:17;25.70;;;16.53;;
17714;SDS011;8977;50.902;4.314;2023-11-21T01:46:46;21.10;;;16.00;;
17714;SDS011;8977;50.902;4.314;2023-11-21T01:49:16;22.83;;;15.87;;
17714;SDS011;8977;50.902;4.314;2023-11-21T01:51:49;21.33;;;15.10;;
17714;SDS011;8977;50.902;4.314;2023-11-21T01:54:19;21.90;;;15.57;;
17714;SDS011;8977;50.902;4.314;2023-11-21T01:56:53;22.20;;;15.90;;
17714;SDS011;8977;50.902;4.314;2023-11-21T01:59:21;22.17;;;15.10;;
17714;SDS011;8977;50.902;4.314;2023-11-21T02:01:54;20.53;;;14.20;;
17714;SDS011;8977;50.902;4.314;2023-11-21T02:04:21;22.13;;;14.30;;
17714;SDS011;8977;50.902;4.314;2023-11-21T02:06:49;20.73;;;14.00;;
17714;SDS011;8977;50.902;4.314;2023-11-21T02:09:16;20.67;;;14.60;;
17714;SDS011;8977;50.902;4.314;2023-11-21T02:11:52;23.40;;;15.53;;
17714;SDS011;8977;50.902;4.314;2023-11-21T02:14:20;23.40;;;15.80;;
17714;SDS011;8977;50.902;4.314;2023-11-21T02:16:48;22.13;;;15.37;;
17714;SDS011;8977;50.902;4.314;2023-11-21T02:19:17;21.60;;;15.10;;
17714;SDS011;8977;50.902;4.314;2023-11-21T02:21:48;21.57;;;14.90;;
17714;SDS011;8977;50.902;4.314;2023-11-21T02:24:22;21.77;;;15.43;;
17714;SDS011;8977;50.902;4.314;2023-11-21T02:26:50;20.83;;;14.43;;
17714;SDS011;8977;50.902;4.314;2023-11-21T02:29:31;21.67;;;14.93;;
17714;SDS011;8977;50.902;4.314;2023-11-21T02:31:58;20.53;;;14.80;;
17714;SDS011;8977;50.902;4.314;2023-11-21T02:34:25;19.17;;;14.03;;
17714;SDS011;8977;50.902;4.314;2023-11-21T02:36:52;22.03;;;14.10;;
17714;SDS011;8977;50.902;4.314;2023-11-21T02:39:22;19.70;;;13.13;;
17714;SDS011;8977;50.902;4.314;2023-11-21T02:41:49;17.97;;;13.53;;
17714;SDS011;8977;50.902;4.314;2023-11-21T02:44:16;19.83;;;12.87;;
17714;SDS011;8977;50.902;4.314;2023-11-21T02:46:43;18.23;;;13.30;;
17714;SDS011;8977;50.902;4.314;2023-11-21T02:49:15;16.87;;;12.53;;
17714;SDS011;8977;50.902;4.314;2023-11-21T02:51:42;18.97;;;11.97;;
17714;SDS011;8977;50.902;4.314;2023-11-21T02:54:09;17.63;;;12.93;;
17714;SDS011;8977;50.902;4.314;2023-11-21T02:56:37;16.57;;;12.63;;
17714;SDS011;8977;50.902;4.314;2023-11-21T02:59:05;18.20;;;13.07;;
17714;SDS011;8977;50.902;4.314;2023-11-21T03:01:32;20.27;;;13.27;;
17714;SDS011;8977;50.902;4.314;2023-11-21T03:03:58;18.97;;;12.47;;
17714;SDS011;8977;50.902;4.314;2023-11-21T03:06:27;21.33;;;12.67;;
17714;SDS011;8977;50.902;4.314;2023-11-21T03:08:55;18.73;;;12.83;;
17714;SDS011;8977;50.902;4.314;2023-11-21T03:11:22;15.53;;;12.27;;
17714;SDS011;8977;50.902;4.314;2023-11-21T03:13:50;18.97;;;12.03;;
17714;SDS011;8977;50.902;4.314;2023-11-21T03:16:18;18.27;;;12.63;;
17714;SDS011;8977;50.902;4.314;2023-11-21T03:18:48;23.57;;;12.93;;
17714;SDS011;8977;50.902;4.314;2023-11-21T03:21:18;16.33;;;12.47;;
17714;SDS011;8977;50.902;4.314;2023-11-21T03:23:45;18.60;;;11.97;;
17714;SDS011;8977;50.902;4.314;2023-11-21T03:26:12;18.60;;;12.83;;
17714;SDS011;8977;50.902;4.314;2023-11-21T03:28:39;15.63;;;12.07;;
17714;SDS011;8977;50.902;4.314;2023-11-21T03:31:07;16.97;;;11.73;;
17714;SDS011;8977;50.902;4.314;2023-11-21T03:33:37;17.13;;;12.23;;
17714;SDS011;8977;50.902;4.314;2023-11-21T03:36:04;18.27;;;11.93;;
17714;SDS011;8977;50.902;4.314;2023-11-21T03:38:34;16.37;;;12.03;;
17714;SDS011;8977;50.902;4.314;2023-11-21T03:41:00;14.90;;;12.10;;
17714;SDS011;8977;50.902;4.314;2023-11-21T03:43:27;16.37;;;11.43;;
17714;SDS011;8977;50.902;4.314;2023-11-21T03:45:54;15.03;;;11.73;;
17714;SDS011;8977;50.902;4.314;2023-11-21T03:48:23;17.17;;;11.90;;
17714;SDS011;8977;50.902;4.314;2023-11-21T03:50:51;15.80;;;12.47;;
17714;SDS011;8977;50.902;4.314;2023-11-21T03:53:17;16.33;;;11.90;;
17714;SDS011;8977;50.902;4.314;2023-11-21T03:55:50;15.47;;;12.20;;
17714;SDS011;8977;50.902;4.314;2023-11-21T03:58:17;16.53;;;12.07;;
17714;SDS011;8977;50.902;4.314;2023-11-21T04:00:45;16.20;;;11.43;;
17714;SDS011;8977;50.902;4.314;2023-11-21T04:03:14;15.83;;;11.77;;
17714;SDS011;8977;50.902;4.314;2023-11-21T04:05:42;17.20;;;10.90;;
17714;SDS011;8977;50.902;4.314;2023-11-21T04:08:11;17.43;;;11.70;;
17714;SDS011;8977;50.902;4.314;2023-11-21T04:10:38;14.83;;;11.83;;
17714;SDS011;8977;50.902;4.314;2023-11-21T04:13:05;15.37;;;11.37;;
17714;SDS011;8977;50.902;4.314;2023-11-21T04:15:34;18.00;;;11.07;;
17714;SDS011;8977;50.902;4.314;2023-11-21T04:18:01;15.70;;;11.23;;
17714;SDS011;8977;50.902;4.314;2023-11-21T04:20:28;13.50;;;11.07;;
17714;SDS011;8977;50.902;4.314;2023-11-21T04:22:57;15.77;;;11.37;;
17714;SDS011;8977;50.902;4.314;2023-11-21T04:25:23;20.57;;;12.03;;
17714;SDS011;8977;50.902;4.314;2023-11-21T04:27:50;19.00;;;11.67;;
17714;SDS011;8977;50.902;4.314;2023-11-21T04:30:19;17.23;;;12.30;;
17714;SDS011;8977;50.902;4.314;2023-11-21T04:32:48;18.93;;;13.20;;
17714;SDS011;8977;50.902;4.314;2023-11-21T04:35:15;19.47;;;12.97;;
17714;SDS011;8977;50.902;4.314;2023-11-21T04:37:45;17.00;;;12.63;;
17714;SDS011;8977;50.902;4.314;2023-11-21T04:40:14;19.93;;;13.63;;
17714;SDS011;8977;50.902;4.314;2023-11-21T04:42:40;20.20;;;13.30;;
17714;SDS011;8977;50.902;4.314;2023-11-21T04:45:07;16.77;;;12.87;;
17714;SDS011;8977;50.902;4.314;2023-11-21T04:47:36;20.93;;;12.53;;
17714;SDS011;8977;50.902;4.314;2023-11-21T04:50:04;17.93;;;12.57;;
17714;SDS011;8977;50.902;4.314;2023-11-21T04:52:32;19.23;;;13.10;;
17714;SDS011;8977;50.902;4.314;2023-11-21T04:54:59;21.60;;;13.10;;
17714;SDS011;8977;50.902;4.314;2023-11-21T04:57:28;18.23;;;13.10;;
17714;SDS011;8977;50.902;4.314;2023-11-21T04:59:55;18.10;;;13.10;;
17714;SDS011;8977;50.902;4.314;2023-11-21T05:02:22;18.60;;;13.13;;
17714;SDS011;8977;50.902;4.314;2023-11-21T05:04:49;18.00;;;12.90;;
17714;SDS011;8977;50.902;4.314;2023-11-21T05:07:16;17.33;;;13.17;;
17714;SDS011;8977;50.902;4.314;2023-11-21T05:09:43;16.90;;;12.83;;
17714;SDS011;8977;50.902;4.314;2023-11-21T05:12:11;17.03;;;12.97;;
17714;SDS011;8977;50.902;4.314;2023-11-21T05:14:39;18.03;;;12.67;;
17714;SDS011;8977;50.902;4.314;2023-11-21T05:17:07;17.60;;;13.13;;
17714;SDS011;8977;50.902;4.314;2023-11-21T05:19:34;21.43;;;13.17;;
17714;SDS011;8977;50.902;4.314;2023-11-21T05:22:01;22.33;;;14.13;;
17714;SDS011;8977;50.902;4.314;2023-11-21T05:24:28;18.43;;;13.30;;
17714;SDS011;8977;50.902;4.314;2023-11-21T05:26:55;21.00;;;13.43;;
17714;SDS011;8977;50.902;4.314;2023-11-21T05:29:23;17.90;;;13.43;;
17714;SDS011;8977;50.902;4.314;2023-11-21T05:31:52;20.87;;;13.63;;
17714;SDS011;8977;50.902;4.314;2023-11-21T05:34:19;20.13;;;14.90;;
17714;SDS011;8977;50.902;4.314;2023-11-21T05:36:48;19.43;;;14.00;;
17714;SDS011;8977;50.902;4.314;2023-11-21T05:39:16;20.73;;;13.43;;
17714;SDS011;8977;50.902;4.314;2023-11-21T05:41:49;19.57;;;13.97;;
17714;SDS011;8977;50.902;4.314;2023-11-21T05:44:16;20.30;;;14.07;;
17714;SDS011;8977;50.902;4.314;2023-11-21T05:46:45;23.03;;;14.67;;
17714;SDS011;8977;50.902;4.314;2023-11-21T05:49:14;18.33;;;14.57;;
17714;SDS011;8977;50.902;4.314;2023-11-21T05:51:47;22.90;;;15.37;;
17714;SDS011;8977;50.902;4.314;2023-11-21T05:54:20;19.00;;;14.33;;
17714;SDS011;8977;50.902;4.314;2023-11-21T05:56:50;19.37;;;14.30;;
17714;SDS011;8977;50.902;4.314;2023-11-21T05:59:17;18.97;;;13.73;;
17714;SDS011;8977;50.902;4.314;2023-11-21T06:01:47;21.27;;;15.33;;
17714;SDS011;8977;50.902;4.314;2023-11-21T06:04:17;18.77;;;14.37;;
17714;SDS011;8977;50.902;4.314;2023-11-21T06:06:47;20.70;;;14.57;;
17714;SDS011;8977;50.902;4.314;2023-11-21T06:09:14;21.00;;;15.13;;
17714;SDS011;8977;50.902;4.314;2023-11-21T06:11:41;23.57;;;15.40;;
17714;SDS011;8977;50.902;4.314;2023-11-21T06:14:08;21.47;;;14.97;;
17714;SDS011;8977;50.902;4.314;2023-11-21T06:16:36;21.23;;;14.90;;
17714;SDS011;8977;50.902;4.314;2023-11-21T06:19:02;23.23;;;15.93;;
17714;SDS011;8977;50.902;4.314;2023-11-21T06:21:31;19.33;;;14.47;;
17714;SDS011;8977;50.902;4.314;2023-11-21T06:23:59;24.83;;;16.07;;
17714;SDS011;8977;50.902;4.314;2023-11-21T06:26:26;20.57;;;14.63;;
17714;SDS011;8977;50.902;4.314;2023-11-21T06:28:53;19.40;;;15.13;;
17714;SDS011;8977;50.902;4.314;2023-11-21T06:31:22;21.80;;;15.37;;
17714;SDS011;8977;50.902;4.314;2023-11-21T06:33:49;20.63;;;14.83;;
17714;SDS011;8977;50.902;4.314;2023-11-21T06:36:17;21.60;;;15.40;;
17714;SDS011;8977;50.902;4.314;2023-11-21T06:38:45;20.07;;;15.33;;
17714;SDS011;8977;50.902;4.314;2023-11-21T06:41:12;21.73;;;14.93;;
17714;SDS011;8977;50.902;4.314;2023-11-21T06:43:40;19.87;;;15.10;;
17714;SDS011;8977;50.902;4.314;2023-11-21T06:46:10;19.20;;;14.87;;
17714;SDS011;8977;50.902;4.314;2023-11-21T06:48:39;20.20;;;14.53;;
17714;SDS011;8977;50.902;4.314;2023-11-21T06:51:06;21.33;;;15.37;;
17714;SDS011;8977;50.902;4.314;2023-11-21T06:53:33;20.43;;;15.30;;
17714;SDS011;8977;50.902;4.314;2023-11-21T06:56:03;23.23;;;15.87;;
17714;SDS011;8977;50.902;4.314;2023-11-21T06:58:30;20.87;;;14.93;;
17714;SDS011;8977;50.902;4.314;2023-11-21T07:01:00;20.63;;;15.93;;
17714;SDS011;8977;50.902;4.314;2023-11-21T07:03:26;21.23;;;16.20;;
17714;SDS011;8977;50.902;4.314;2023-11-21T07:05:53;21.00;;;15.67;;
17714;SDS011;8977;50.902;4.314;2023-11-21T07:08:20;20.73;;;16.27;;
17714;SDS011;8977;50.902;4.314;2023-11-21T07:10:48;22.83;;;16.10;;
17714;SDS011;8977;50.902;4.314;2023-11-21T07:13:16;22.73;;;16.63;;
17714;SDS011;8977;50.902;4.314;2023-11-21T07:15:43;22.43;;;15.87;;
17714;SDS011;8977;50.902;4.314;2023-11-21T07:18:10;22.57;;;15.57;;
17714;SDS011;8977;50.902;4.314;2023-11-21T07:20:37;21.40;;;15.60;;
17714;SDS011;8977;50.902;4.314;2023-11-21T07:23:04;21.40;;;16.80;;
17714;SDS011;8977;50.902;4.314;2023-11-21T07:25:31;24.67;;;15.73;;
17714;SDS011;8977;50.902;4.314;2023-11-21T07:27:58;19.73;;;16.10;;
17714;SDS011;8977;50.902;4.314;2023-11-21T07:30:27;23.50;;;16.87;;
17714;SDS011;8977;50.902;4.314;2023-11-21T07:32:53;20.17;;;15.77;;
17714;SDS011;8977;50.902;4.314;2023-11-21T07:35:20;22.60;;;15.93;;
17714;SDS011;8977;50.902;4.314;2023-11-21T07:37:47;23.53;;;15.97;;
17714;SDS011;8977;50.902;4.314;2023-11-21T07:40:14;25.57;;;16.07;;
17714;SDS011;8977;50.902;4.314;2023-11-21T07:42:42;25.00;;;16.30;;
17714;SDS011;8977;50.902;4.314;2023-11-21T07:45:09;23.17;;;17.00;;
17714;SDS011;8977;50.902;4.314;2023-11-21T07:47:37;27.83;;;17.23;;
17714;SDS011;8977;50.902;4.314;2023-11-21T07:50:05;20.20;;;15.63;;
17714;SDS011;8977;50.902;4.314;2023-11-21T07:52:33;26.63;;;17.00;;
17714;SDS011;8977;50.902;4.314;2023-11-21T07:55:00;23.90;;;16.53;;
17714;SDS011;8977;50.902;4.314;2023-11-21T07:57:27;25.60;;;16.47;;
17714;SDS011;8977;50.902;4.314;2023-11-21T07:59:54;25.03;;;15.83;;
17714;SDS011;8977;50.902;4.314;2023-11-21T08:02:21;24.43;;;16.33;;
17714;SDS011;8977;50.902;4.314;2023-11-21T08:04:49;28.57;;;16.93;;
17714;SDS011;8977;50.902;4.314;2023-11-21T08:07:17;22.57;;;16.57;;
17714;SDS011;8977;50.902;4.314;2023-11-21T08:09:44;24.73;;;16.00;;
17714;SDS011;8977;50.902;4.314;2023-11-21T08:12:11;25.20;;;16.43;;
17714;SDS011;8977;50.902;4.314;2023-11-21T08:14:39;27.77;;;16.73;;
17714;SDS011;8977;50.902;4.314;2023-11-21T08:17:06;26.87;;;16.73;;
17714;SDS011;8977;50.902;4.314;2023-11-21T08:19:35;23.10;;;15.40;;
17714;SDS011;8977;50.902;4.314;2023-11-21T08:22:04;29.20;;;19.07;;
17714;SDS011;8977;50.902;4.314;2023-11-21T08:24:33;29.53;;;16.97;;
17714;SDS011;8977;50.902;4.314;2023-11-21T08:27:00;25.77;;;16.57;;
17714;SDS011;8977;50.902;4.314;2023-11-21T08:29:26;28.87;;;17.33;;
17714;SDS011;8977;50.902;4.314;2023-11-21T08:31:53;28.27;;;17.23;;
17714;SDS011;8977;50.902;4.314;2023-11-21T08:34:21;27.40;;;17.47;;
17714;SDS011;8977;50.902;4.314;2023-11-21T08:36:49;28.20;;;17.20;;
17714;SDS011;8977;50.902;4.314;2023-11-21T08:39:17;24.87;;;17.17;;
17714;SDS011;8977;50.902;4.314;2023-11-21T08:41:44;26.93;;;17.57;;
17714;SDS011;8977;50.902;4.314;2023-11-21T08:44:11;22.10;;;17.13;;
17714;SDS011;8977;50.902;4.314;2023-11-21T08:46:38;25.47;;;17.03;;
17714;SDS011;8977;50.902;4.314;2023-11-21T08:49:06;27.60;;;17.03;;
17714;SDS011;8977;50.902;4.314;2023-11-21T08:51:33;31.63;;;17.17;;
17714;SDS011;8977;50.902;4.314;2023-11-21T08:54:00;28.23;;;17.70;;
17714;SDS011;8977;50.902;4.314;2023-11-21T08:56:31;28.80;;;17.47;;
17714;SDS011;8977;50.902;4.314;2023-11-21T08:58:58;30.83;;;17.67;;
17714;SDS011;8977;50.902;4.314;2023-11-21T09:01:27;28.23;;;17.77;;
17714;SDS011;8977;50.902;4.314;2023-11-21T09:03:54;27.23;;;16.50;;
17714;SDS011;8977;50.902;4.314;2023-11-21T09:06:20;29.57;;;17.97;;
17714;SDS011;8977;50.902;4.314;2023-11-21T09:08:47;26.33;;;17.10;;
17714;SDS011;8977;50.902;4.314;2023-11-21T09:11:14;26.77;;;16.40;;
17714;SDS011;8977;50.902;4.314;2023-11-21T09:13:42;28.00;;;16.97;;
17714;SDS011;8977;50.902;4.314;2023-11-21T09:16:09;28.57;;;15.20;;
17714;SDS011;8977;50.902;4.314;2023-11-21T09:18:36;25.67;;;15.63;;
17714;SDS011;8977;50.902;4.314;2023-11-21T09:21:04;26.17;;;16.00;;
17714;SDS011;8977;50.902;4.314;2023-11-21T09:23:31;27.60;;;15.53;;
17714;SDS011;8977;50.902;4.314;2023-11-21T09:25:58;23.23;;;15.47;;
17714;SDS011;8977;50.902;4.314;2023-11-21T09:28:28;21.30;;;13.97;;
17714;SDS011;8977;50.902;4.314;2023-11-21T09:30:56;21.30;;;14.27;;
17714;SDS011;8977;50.902;4.314;2023-11-21T09:33:23;22.27;;;14.67;;
17714;SDS011;8977;50.902;4.314;2023-11-21T09:35:50;22.23;;;14.60;;
17714;SDS011;8977;50.902;4.314;2023-11-21T09:38:17;21.60;;;13.70;;
17714;SDS011;8977;50.902;4.314;2023-11-21T09:40:44;18.67;;;13.70;;
17714;SDS011;8977;50.902;4.314;2023-11-21T09:43:14;18.00;;;12.77;;
17714;SDS011;8977;50.902;4.314;2023-11-21T09:45:44;18.60;;;13.17;;
17714;SDS011;8977;50.902;4.314;2023-11-21T09:48:13;19.10;;;13.17;;
17714;SDS011;8977;50.902;4.314;2023-11-21T09:50:41;17.53;;;13.00;;
17714;SDS011;8977;50.902;4.314;2023-11-21T09:53:11;20.67;;;13.80;;
17714;SDS011;8977;50.902;4.314;2023-11-21T09:55:42;17.37;;;12.30;;
17714;SDS011;8977;50.902;4.314;2023-11-21T09:58:10;20.00;;;12.67;;
17714;SDS011;8977;50.902;4.314;2023-11-21T10:00:39;16.63;;;11.73;;
17714;SDS011;8977;50.902;4.314;2023-11-21T10:03:07;16.73;;;13.03;;
17714;SDS011;8977;50.902;4.314;2023-11-21T10:05:35;15.93;;;12.17;;
17714;SDS011;8977;50.902;4.314;2023-11-21T10:08:04;15.10;;;12.23;;
17714;SDS011;8977;50.902;4.314;2023-11-21T10:10:35;19.53;;;13.97;;
17714;SDS011;8977;50.902;4.314;2023-11-21T10:13:02;19.23;;;14.17;;
17714;SDS011;8977;50.902;4.314;2023-11-21T10:15:32;21.53;;;14.03;;
17714;SDS011;8977;50.902;4.314;2023-11-21T10:18:01;25.50;;;16.27;;
17714;SDS011;8977;50.902;4.314;2023-11-21T10:20:31;21.87;;;15.40;;
17714;SDS011;8977;50.902;4.314;2023-11-21T10:23:02;25.10;;;15.97;;
17714;SDS011;8977;50.902;4.314;2023-11-21T10:25:29;20.37;;;14.93;;
17714;SDS011;8977;50.902;4.314;2023-11-21T10:27:57;25.80;;;16.70;;
17714;SDS011;8977;50.902;4.314;2023-11-21T10:30:32;24.40;;;17.13;;
17714;SDS011;8977;50.902;4.314;2023-11-21T10:33:02;26.97;;;17.83;;
17714;SDS011;8977;50.902;4.314;2023-11-21T10:35:39;27.43;;;19.63;;
17714;SDS011;8977;50.902;4.314;2023-11-21T10:38:13;27.27;;;19.17;;
17714;SDS011;8977;50.902;4.314;2023-11-21T10:40:40;30.90;;;20.13;;
17714;SDS011;8977;50.902;4.314;2023-11-21T10:43:09;29.37;;;20.23;;
17714;SDS011;8977;50.902;4.314;2023-11-21T10:45:38;27.33;;;19.97;;
17714;SDS011;8977;50.902;4.314;2023-11-21T10:48:05;25.67;;;19.27;;
17714;SDS011;8977;50.902;4.314;2023-11-21T10:50:34;29.50;;;20.67;;
17714;SDS011;8977;50.902;4.314;2023-11-21T10:53:01;24.83;;;17.70;;
17714;SDS011;8977;50.902;4.314;2023-11-21T10:55:31;22.93;;;16.67;;
17714;SDS011;8977;50.902;4.314;2023-11-21T10:57:59;22.27;;;16.27;;
17714;SDS011;8977;50.902;4.314;2023-11-21T11:00:28;21.30;;;16.63;;
17714;SDS011;8977;50.902;4.314;2023-11-21T11:02:55;21.43;;;16.23;;
17714;SDS011;8977;50.902;4.314;2023-11-21T11:05:24;22.77;;;17.07;;
17714;SDS011;8977;50.902;4.314;2023-11-21T11:07:54;22.33;;;16.77;;
17714;SDS011;8977;50.902;4.314;2023-11-21T11:10:26;22.03;;;15.97;;
17714;SDS011;8977;50.902;4.314;2023-11-21T11:12:55;20.80;;;15.70;;
17714;SDS011;8977;50.902;4.314;2023-11-21T11:15:23;21.30;;;15.67;;
17714;SDS011;8977;50.902;4.314;2023-11-21T11:17:51;18.90;;;14.77;;
17714;SDS011;8977;50.902;4.314;2023-11-21T11:20:22;19.63;;;14.87;;
17714;SDS011;8977;50.902;4.314;2023-11-21T11:22:51;18.80;;;15.10;;
17714;SDS011;8977;50.902;4.314;2023-11-21T11:25:35;21.47;;;13.80;;
17714;SDS011;8977;50.902;4.314;2023-11-21T11:28:17;17.93;;;14.90;;
17714;SDS011;8977;50.902;4.314;2023-11-21T11:30:50;18.20;;;14.47;;
17714;SDS011;8977;50.902;4.314;2023-11-21T11:33:30;15.00;;;13.13;;
17714;SDS011;8977;50.902;4.314;2023-11-21T11:36:03;18.03;;;15.00;;
17714;SDS011;8977;50.902;4.314;2023-11-21T11:38:33;20.17;;;13.73;;
17714;SDS011;8977;50.902;4.314;2023-11-21T11:41:01;18.47;;;14.27;;
17714;SDS011;8977;50.902;4.314;2023-11-21T11:43:31;17.77;;;13.80;;
17714;SDS011;8977;50.902;4.314;2023-11-21T11:46:07;14.13;;;11.67;;
17714;SDS011;8977;50.902;4.314;2023-11-21T11:48:35;14.50;;;11.10;;
17714;SDS011;8977;50.902;4.314;2023-11-21T11:51:05;12.23;;;10.23;;
17714;SDS011;8977;50.902;4.314;2023-11-21T11:53:37;13.07;;;10.17;;
17714;SDS011;8977;50.902;4.314;2023-11-21T11:56:19;10.23;;;9.17;;
17714;SDS011;8977;50.902;4.314;2023-11-21T11:58:52;12.67;;;9.73;;
17714;SDS011;8977;50.902;4.314;2023-11-21T12:01:21;11.60;;;8.73;;
17714;SDS011;8977;50.902;4.314;2023-11-21T12:06:56;12.70;;;9.07;;
17714;SDS011;8977;50.902;4.314;2023-11-21T12:09:25;10.40;;;8.23;;
17714;SDS011;8977;50.902;4.314;2023-11-21T12:11:54;11.00;;;7.87;;
17714;SDS011;8977;50.902;4.314;2023-11-21T12:14:24;8.63;;;7.40;;
17714;SDS011;8977;50.902;4.314;2023-11-21T12:16:51;11.30;;;7.17;;
17714;SDS011;8977;50.902;4.314;2023-11-21T12:19:19;9.33;;;6.87;;
17714;SDS011;8977;50.902;4.314;2023-11-21T12:21:47;9.70;;;6.13;;
17714;SDS011;8977;50.902;4.314;2023-11-21T12:24:15;8.23;;;6.37;;
17714;SDS011;8977;50.902;4.314;2023-11-21T12:26:43;6.63;;;5.93;;
17714;SDS011;8977;50.902;4.314;2023-11-21T12:29:10;9.33;;;5.87;;
17714;SDS011;8977;50.902;4.314;2023-11-21T12:31:39;9.93;;;6.20;;
17714;SDS011;8977;50.902;4.314;2023-11-21T12:34:06;11.20;;;5.67;;
17714;SDS011;8977;50.902;4.314;2023-11-21T12:36:37;8.03;;;5.87;;
17714;SDS011;8977;50.902;4.314;2023-11-21T12:39:05;7.67;;;5.87;;
17714;SDS011;8977;50.902;4.314;2023-11-21T12:41:34;10.23;;;6.10;;
17714;SDS011;8977;50.902;4.314;2023-11-21T12:44:01;9.83;;;6.03;;
17714;SDS011;8977;50.902;4.314;2023-11-21T12:46:28;8.30;;;5.97;;
17714;SDS011;8977;50.902;4.314;2023-11-21T12:48:58;11.20;;;6.00;;
17714;SDS011;8977;50.902;4.314;2023-11-21T12:51:25;10.47;;;6.20;;
17714;SDS011;8977;50.902;4.314;2023-11-21T12:53:54;10.90;;;6.53;;
17714;SDS011;8977;50.902;4.314;2023-11-21T12:56:23;10.10;;;6.53;;
17714;SDS011;8977;50.902;4.314;2023-11-21T12:58:50;9.17;;;6.00;;
17714;SDS011;8977;50.902;4.314;2023-11-21T13:01:24;8.30;;;6.07;;
17714;SDS011;8977;50.902;4.314;2023-11-21T13:03:53;8.03;;;6.50;;
17714;SDS011;8977;50.902;4.314;2023-11-21T13:06:21;8.70;;;6.17;;
17714;SDS011;8977;50.902;4.314;2023-11-21T13:08:50;9.30;;;6.13;;
17714;SDS011;8977;50.902;4.314;2023-11-21T13:11:17;9.87;;;6.23;;
17714;SDS011;8977;50.902;4.314;2023-11-21T13:13:44;7.73;;;6.80;;
17714;SDS011;8977;50.902;4.314;2023-11-21T13:16:11;10.13;;;7.10;;
17714;SDS011;8977;50.902;4.314;2023-11-21T13:18:40;10.23;;;7.30;;
17714;SDS011;8977;50.902;4.314;2023-11-21T13:21:07;8.43;;;7.43;;
17714;SDS011;8977;50.902;4.314;2023-11-21T13:23:40;8.93;;;7.47;;
17714;SDS011;8977;50.902;4.314;2023-11-21T13:26:08;11.53;;;8.07;;
17714;SDS011;8977;50.902;4.314;2023-11-21T13:28:35;9.30;;;7.63;;
17714;SDS011;8977;50.902;4.314;2023-11-21T13:31:03;7.67;;;6.87;;
17714;SDS011;8977;50.902;4.314;2023-11-21T13:33:45;8.67;;;7.77;;
17714;SDS011;8977;50.902;4.314;2023-11-21T13:36:17;7.37;;;6.67;;
17714;SDS011;8977;50.902;4.314;2023-11-21T13:38:48;9.23;;;7.27;;
17714;SDS011;8977;50.902;4.314;2023-11-21T13:41:17;11.30;;;8.50;;
17714;SDS011;8977;50.902;4.314;2023-11-21T13:43:44;9.67;;;8.40;;
17714;SDS011;8977;50.902;4.314;2023-11-21T13:46:17;8.23;;;7.43;;
17714;SDS011;8977;50.902;4.314;2023-11-21T13:48:47;9.93;;;7.33;;
17714;SDS011;8977;50.902;4.314;2023-11-21T13:51:16;8.27;;;6.57;;
17714;SDS011;8977;50.902;4.314;2023-11-21T13:53:43;6.47;;;5.87;;
17714;SDS011;8977;50.902;4.314;2023-11-21T13:56:14;7.37;;;5.60;;
17714;SDS011;8977;50.902;4.314;2023-11-21T13:58:44;8.17;;;5.80;;
17714;SDS011;8977;50.902;4.314;2023-11-21T14:01:15;6.93;;;6.20;;
17714;SDS011;8977;50.902;4.314;2023-11-21T14:04:10;8.73;;;6.10;;
17714;SDS011;8977;50.902;4.314;2023-11-21T14:06:45;7.67;;;6.10;;
17714;SDS011;8977;50.902;4.314;2023-11-21T14:09:14;7.37;;;5.83;;
17714;SDS011;8977;50.902;4.314;2023-11-21T14:11:50;6.27;;;5.67;;
17714;SDS011;8977;50.902;4.314;2023-11-21T14:14:18;7.27;;;6.57;;
17714;SDS011;8977;50.902;4.314;2023-11-21T14:16:46;7.17;;;6.47;;
17714;SDS011;8977;50.902;4.314;2023-11-21T14:19:13;7.97;;;6.50;;
17714;SDS011;8977;50.902;4.314;2023-11-21T14:21:42;8.77;;;6.27;;
17714;SDS011;8977;50.902;4.314;2023-11-21T14:24:09;7.67;;;5.67;;
17714;SDS011;8977;50.902;4.314;2023-11-21T14:26:38;5.00;;;4.60;;
17714;SDS011;8977;50.902;4.314;2023-11-21T14:29:07;5.70;;;4.57;;
17714;SDS011;8977;50.902;4.314;2023-11-21T14:31:37;4.73;;;4.23;;
17714;SDS011;8977;50.902;4.314;2023-11-21T14:34:04;4.47;;;4.07;;
17714;SDS011;8977;50.902;4.314;2023-11-21T14:36:32;4.77;;;4.10;;
17714;SDS011;8977;50.902;4.314;2023-11-21T14:38:59;4.90;;;3.77;;
17714;SDS011;8977;50.902;4.314;2023-11-21T14:41:27;5.57;;;4.40;;
17714;SDS011;8977;50.902;4.314;2023-11-21T14:43:54;6.07;;;4.23;;
17714;SDS011;8977;50.902;4.314;2023-11-21T14:46:23;5.07;;;4.57;;
17714;SDS011;8977;50.902;4.314;2023-11-21T14:48:50;6.10;;;4.17;;
17714;SDS011;8977;50.902;4.314;2023-11-21T14:51:25;6.20;;;4.37;;
17714;SDS011;8977;50.902;4.314;2023-11-21T14:53:52;5.73;;;3.90;;